Time;durP1;ratioP1;P1;durP2;ratioP2;P2;SDS_P1;SDS_P2;PMS_P1;PMS_P2;Temp;Humidity;BMP_temperature;BMP_pressure;BME280_temperature;BME280_humidity;BME280_pressure;Samples;Min_cycle;Max_cycle;Signal;HPM_P1;HPM_P2
2024/04/09 00:02:21;;;;;;;;;;;;;;;;;;5014226;28;20358;-82
2024/04/09 00:04:49;;;;;;;;;;;;;;;;;;5006223;28;19970;-81
2024/04/09 00:07:15;;;;;;;;;;;;;;;;;;5017096;28;19973;-82
2024/04/09 00:09:43;;;;;;;;;;;;;;;;;;5012214;28;20008;-81
2024/04/09 00:12:09;;;;;;;;;;;;;;;;;;5011269;28;19985;-80
2024/04/09 00:14:37;;;;;;;;;;;;;;;;;;5012056;28;19979;-82
2024/04/09 00:17:05;;;;;;;;;;;;;;;;;;5007873;28;20068;-83
2024/04/09 00:19:32;;;;;;;;;;;;;;;;;;5015097;28;19974;-83
2024/04/09 00:21:59;;;;;;;;;;;;;;;;;;5006413;28;20000;-82
2024/04/09 00:24:26;;;;;;;;;;;;;;;;;;5007361;28;19970;-82
2024/04/09 00:26:52;;;;;;;;;;;;;;;;;;5005739;28;19973;-82
2024/04/09 00:29:19;;;;;;;;;;;;;;;;;;5013132;28;19980;-82
2024/04/09 00:31:45;;;;;;;;;;;;;;;;;;5016995;28;20031;-83
2024/04/09 00:34:12;;;;;;;;;;;;;;;;;;5008555;28;19969;-82
2024/04/09 00:36:40;;;;;;;;;;;;;;;;;;5010806;28;20068;-82
2024/04/09 00:39:19;;;;;;;;;;;;;;;;;;5007663;28;20013;-83
2024/04/09 00:41:47;;;;;;;;;;;;;;;;;;5017976;28;19986;-82
2024/04/09 00:44:14;;;;;;;;;;;;;;;;;;5024711;28;19969;-82
2024/04/09 00:46:39;;;;;;;;;;;;;;;;;;5024645;28;20048;-83
2024/04/09 00:49:08;;;;;;;;;;;;;;;;;;5024009;28;19980;-83
2024/04/09 00:51:34;;;;;;;;;;;;;;;;;;5024504;28;19997;-82
2024/04/09 00:54:01;;;;;;;;;;;;;;;;;;5008195;28;20360;-83
2024/04/09 00:56:27;;;;;;;;;;;;;;;;;;5010035;28;20019;-83
2024/04/09 00:58:54;;;;;;;;;;;;;;;;;;5025352;28;19973;-83
2024/04/09 01:01:20;;;;;;;;;;;;;;;;;;5020314;28;19988;-82
2024/04/09 01:03:48;;;;;;;;;;;;;;;;;;5025517;28;19969;-80
2024/04/09 01:06:14;;;;;;;;;;;;;;;;;;5025215;28;20052;-83
2024/04/09 01:08:41;;;;;;;;;;;;;;;;;;5017164;28;20481;-83
2024/04/09 01:11:07;;;;;;;;;;;;;;;;;;5023200;28;20093;-83
2024/04/09 01:13:34;;;;;;;;;;;;;;;;;;5011610;28;19969;-82
2024/04/09 01:16:03;;;;;;;;;;;;;;;;;;5006127;28;19984;-81
2024/04/09 01:18:29;;;;;;;;;;;;;;;;;;5005148;28;20041;-83
2024/04/09 01:20:56;;;;;;;;;;;;;;;;;;5013345;28;19965;-83
2024/04/09 01:23:22;;;;;;;;;;;;;;;;;;5012589;28;20449;-82
2024/04/09 01:25:49;;;;;;;;;;;;;;;;;;5010562;28;19973;-82
2024/04/09 01:28:14;;;;;;;;;;;;;;;;;;5015495;28;19973;-83
2024/04/09 01:30:43;;;;;;;;;;;;;;;;;;5024422;28;20029;-83
2024/04/09 01:33:10;;;;;;;;;;;;;;;;;;5024060;28;20032;-83
2024/04/09 01:35:37;;;;;;;;;;;;;;;;;;5018786;28;19969;-83
2024/04/09 01:38:03;;;;;;;;;;;;;;;;;;5013001;28;20076;-82
2024/04/09 01:40:30;;;;;;;;;;;;;;;;;;5015479;28;20054;-82
2024/04/09 01:42:56;;;;;;;;;;;;;;;;;;5013552;28;20525;-82
2024/04/09 01:45:23;;;;;;;;;;;;;;;;;;5016730;28;19969;-81
2024/04/09 01:47:49;;;;;;;;;;;;;;;;;;5023808;28;20402;-83
2024/04/09 01:50:16;;;;;;;;;;;;;;;;;;5005700;28;19969;-81
2024/04/09 01:52:42;;;;;;;;;;;;;;;;;;5023546;28;20049;-82
2024/04/09 01:55:09;;;;;;;;;;;;;;;;;;5014191;28;19969;-82
2024/04/09 01:57:35;;;;;;;;;;;;;;;;;;5013133;28;20012;-81
2024/04/09 02:00:11;;;;;;;;;;;;;;;;;;5005466;28;19969;-83
2024/04/09 02:02:37;;;;;;;;;;;;;;;;;;5027688;28;19987;-81
2024/04/09 02:05:04;;;;;;;;;;;;;;;;;;5024245;28;20017;-83
2024/04/09 02:07:30;;;;;;;;;;;;;;;;;;5017835;28;19981;-83
2024/04/09 02:09:57;;;;;;;;;;;;;;;;;;5007022;28;20001;-82
2024/04/09 02:12:23;;;;;;;;;;;;;;;;;;5014889;28;20040;-84
2024/04/09 02:14:50;;;;;;;;;;;;;;;;;;5006456;28;19969;-83
2024/04/09 02:17:16;;;;;;;;;;;;;;;;;;5005824;28;20068;-83
2024/04/09 02:19:43;;;;;;;;;;;;;;;;;;5006099;28;20000;-84
2024/04/09 02:22:09;;;;;;;;;;;;;;;;;;5017406;28;20072;-82
2024/04/09 02:24:36;;;;;;;;;;;;;;;;;;5018193;28;19980;-83
2024/04/09 02:27:03;;;;;;;;;;;;;;;;;;5007299;28;20127;-83
2024/04/09 02:29:30;;;;;;;;;;;;;;;;;;5005547;28;19973;-83
2024/04/09 02:31:56;;;;;;;;;;;;;;;;;;5006132;28;20056;-81
2024/04/09 02:34:24;;;;;;;;;;;;;;;;;;5015941;28;19976;-82
2024/04/09 02:36:50;;;;;;;;;;;;;;;;;;5023794;28;19978;-83
2024/04/09 02:39:17;;;;;;;;;;;;;;;;;;5023758;28;20441;-82
2024/04/09 02:41:43;;;;;;;;;;;;;;;;;;5024160;28;20047;-83
2024/04/09 02:44:10;;;;;;;;;;;;;;;;;;5016722;28;19973;-83
2024/04/09 02:46:36;;;;;;;;;;;;;;;;;;5010086;28;20044;-82
2024/04/09 02:49:04;;;;;;;;;;;;;;;;;;5013684;28;20475;-83
2024/04/09 02:51:30;;;;;;;;;;;;;;;;;;5024485;28;20000;-83
2024/04/09 02:53:57;;;;;;;;;;;;;;;;;;5027357;28;19969;-83
2024/04/09 02:56:23;;;;;;;;;;;;;;;;;;5007760;28;19997;-82
2024/04/09 02:58:50;;;;;;;;;;;;;;;;;;5005404;28;19969;-82
2024/04/09 03:01:16;;;;;;;;;;;;;;;;;;5024548;28;20027;-80
2024/04/09 03:03:43;;;;;;;;;;;;;;;;;;5013689;28;19973;-81
2024/04/09 03:06:08;;;;;;;;;;;;;;;;;;5007359;28;20073;-81
2024/04/09 03:08:35;;;;;;;;;;;;;;;;;;5007965;28;19969;-81
2024/04/09 03:11:01;;;;;;;;;;;;;;;;;;5020527;28;19981;-81
2024/04/09 03:13:28;;;;;;;;;;;;;;;;;;5027778;28;19993;-82
2024/04/09 03:15:55;;;;;;;;;;;;;;;;;;5010768;28;20107;-81
2024/04/09 03:18:22;;;;;;;;;;;;;;;;;;5007070;28;20032;-82
2024/04/09 03:20:48;;;;;;;;;;;;;;;;;;5020984;28;20059;-82
2024/04/09 03:23:15;;;;;;;;;;;;;;;;;;5024611;28;19993;-81
2024/04/09 03:25:41;;;;;;;;;;;;;;;;;;5007620;28;20068;-81
2024/04/09 03:28:08;;;;;;;;;;;;;;;;;;5006861;28;19970;-82
2024/04/09 03:30:34;;;;;;;;;;;;;;;;;;5018844;28;19981;-81
2024/04/09 03:33:01;;;;;;;;;;;;;;;;;;5027375;28;20051;-81
2024/04/09 03:35:27;;;;;;;;;;;;;;;;;;5022904;28;20056;-81
2024/04/09 03:37:54;;;;;;;;;;;;;;;;;;5023902;28;19973;-82
2024/04/09 03:40:21;;;;;;;;;;;;;;;;;;5018057;28;20029;-79
2024/04/09 03:42:48;;;;;;;;;;;;;;;;;;5008129;28;20061;-81
2024/04/09 03:45:14;;;;;;;;;;;;;;;;;;5007704;28;20056;-81
2024/04/09 03:47:41;;;;;;;;;;;;;;;;;;5007667;28;19981;-81
2024/04/09 03:50:07;;;;;;;;;;;;;;;;;;5007947;28;20056;-82
2024/04/09 03:52:34;;;;;;;;;;;;;;;;;;5018267;28;19989;-82
2024/04/09 03:55:00;;;;;;;;;;;;;;;;;;5026429;28;20072;-82
2024/04/09 03:57:27;;;;;;;;;;;;;;;;;;5026860;28;19969;-82
2024/04/09 03:59:53;;;;;;;;;;;;;;;;;;5023282;28;20056;-82
2024/04/09 04:02:20;;;;;;;;;;;;;;;;;;5010986;28;20024;-83
2024/04/09 04:04:46;;;;;;;;;;;;;;;;;;5025646;28;20037;-81
2024/04/09 04:07:15;;;;;;;;;;;;;;;;;;5011164;28;20013;-83
2024/04/09 04:09:42;;;;;;;;;;;;;;;;;;5011586;28;19980;-82
2024/04/09 04:12:08;;;;;;;;;;;;;;;;;;5010632;28;20088;-82
2024/04/09 04:14:35;;;;;;;;;;;;;;;;;;5018033;28;19980;-83
2024/04/09 04:17:01;;;;;;;;;;;;;;;;;;5022979;28;20005;-82
2024/04/09 04:19:28;;;;;;;;;;;;;;;;;;5012706;28;19977;-82
2024/04/09 04:21:54;;;;;;;;;;;;;;;;;;5025715;28;20087;-83
2024/04/09 04:24:21;;;;;;;;;;;;;;;;;;5022459;28;20012;-83
2024/04/09 04:26:47;;;;;;;;;;;;;;;;;;5022229;28;19979;-83
2024/04/09 04:29:14;;;;;;;;;;;;;;;;;;5022852;28;20008;-82
2024/04/09 04:31:40;;;;;;;;;;;;;;;;;;5016430;28;19993;-82
2024/04/09 04:34:07;;;;;;;;;;;;;;;;;;5018234;28;20012;-82
2024/04/09 04:36:33;;;;;;;;;;;;;;;;;;5016051;28;20037;-82
2024/04/09 04:39:00;;;;;;;;;;;;;;;;;;5016913;28;20005;-83
2024/04/09 04:41:26;;;;;;;;;;;;;;;;;;5011011;28;19985;-83
2024/04/09 04:43:55;;;;;;;;;;;;;;;;;;5013065;28;20477;-82
2024/04/09 04:46:21;;;;;;;;;;;;;;;;;;5009863;28;19977;-82
2024/04/09 04:48:49;;;;;;;;;;;;;;;;;;5012343;28;20009;-82
2024/04/09 04:51:15;;;;;;;;;;;;;;;;;;5006622;28;19998;-82
2024/04/09 04:53:42;;;;;;;;;;;;;;;;;;5006796;28;19961;-82
2024/04/09 04:56:08;;;;;;;;;;;;;;;;;;5009895;28;20285;-83
2024/04/09 04:58:35;;;;;;;;;;;;;;;;;;5014695;28;20143;-83
2024/04/09 05:01:01;;;;;;;;;;;;;;;;;;5014856;28;20021;-83
2024/04/09 05:03:28;;;;;;;;;;;;;;;;;;5015128;28;20269;-83
2024/04/09 05:05:54;;;;;;;;;;;;;;;;;;5014621;28;20021;-83
2024/04/09 05:08:22;;;;;;;;;;;;;;;;;;5013564;28;20354;-83
2024/04/09 05:10:47;;;;;;;;;;;;;;;;;;5007766;28;20036;-83
2024/04/09 05:13:14;;;;;;;;;;;;;;;;;;5009456;28;20016;-83
2024/04/09 05:15:40;;;;;;;;;;;;;;;;;;5014281;28;20068;-83
2024/04/09 05:18:08;;;;;;;;;;;;;;;;;;5010543;28;20489;-82
2024/04/09 05:20:36;;;;;;;;;;;;;;;;;;5008274;28;19965;-83
2024/04/09 05:23:03;;;;;;;;;;;;;;;;;;5006292;28;20057;-83
2024/04/09 05:25:32;;;;;;;;;;;;;;;;;;5004657;28;20020;-83
2024/04/09 05:27:58;;;;;;;;;;;;;;;;;;5011688;28;19980;-82
2024/04/09 05:30:24;;;;;;;;;;;;;;;;;;5010291;28;20076;-83
2024/04/09 05:32:51;;;;;;;;;;;;;;;;;;5009298;28;20040;-82
2024/04/09 05:35:19;;;;;;;;;;;;;;;;;;5013237;28;19976;-83
2024/04/09 05:37:46;;;;;;;;;;;;;;;;;;5007922;28;19961;-82
2024/04/09 05:40:12;;;;;;;;;;;;;;;;;;5011772;28;20004;-83
2024/04/09 05:42:39;;;;;;;;;;;;;;;;;;5013683;28;19988;-83
2024/04/09 05:45:06;;;;;;;;;;;;;;;;;;5014671;28;20060;-83
2024/04/09 05:47:33;;;;;;;;;;;;;;;;;;5014893;28;19965;-82
2024/04/09 05:49:59;;;;;;;;;;;;;;;;;;5012480;28;20015;-82
2024/04/09 05:52:28;;;;;;;;;;;;;;;;;;5011762;28;19993;-81
2024/04/09 05:54:55;;;;;;;;;;;;;;;;;;5010294;28;20502;-81
2024/04/09 05:57:22;;;;;;;;;;;;;;;;;;5012731;28;20007;-81
2024/04/09 05:59:48;;;;;;;;;;;;;;;;;;5010897;28;20023;-82
2024/04/09 06:02:15;;;;;;;;;;;;;;;;;;5007733;28;20465;-82
2024/04/09 06:04:41;;;;;;;;;;;;;;;;;;5006725;28;19972;-82
2024/04/09 06:07:08;;;;;;;;;;;;;;;;;;5010054;28;20001;-81
2024/04/09 06:09:34;;;;;;;;;;;;;;;;;;5008447;28;20068;-81
2024/04/09 06:12:00;;;;;;;;;;;;;;;;;;5008431;28;20024;-81
2024/04/09 06:14:26;;;;;;;;;;;;;;;;;;5014707;28;20015;-80
2024/04/09 06:16:53;;;;;;;;;;;;;;;;;;5018500;28;19961;-80
2024/04/09 06:19:20;;;;;;;;;;;;;;;;;;5022561;28;19997;-81
2024/04/09 06:21:47;;;;;;;;;;;;;;;;;;5014361;28;19999;-81
2024/04/09 06:24:13;;;;;;;;;;;;;;;;;;5009028;28;19969;-81
2024/04/09 06:26:40;;;;;;;;;;;;;;;;;;5007786;28;20004;-80
2024/04/09 06:29:06;;;;;;;;;;;;;;;;;;5022200;28;19969;-80
2024/04/09 06:31:33;;;;;;;;;;;;;;;;;;5016649;28;20037;-80
2024/04/09 06:33:59;;;;;;;;;;;;;;;;;;5016911;28;19973;-81
2024/04/09 06:36:26;;;;;;;;;;;;;;;;;;5018414;28;20005;-81
2024/04/09 06:38:52;;;;;;;;;;;;;;;;;;5016155;28;19969;-81
2024/04/09 06:41:19;;;;;;;;;;;;;;;;;;5017423;28;20064;-81
2024/04/09 06:43:45;;;;;;;;;;;;;;;;;;5013856;28;20661;-81
2024/04/09 06:46:11;;;;;;;;;;;;;;;;;;5017894;28;19993;-82
2024/04/09 06:48:38;;;;;;;;;;;;;;;;;;5013572;28;19973;-81
2024/04/09 06:51:05;;;;;;;;;;;;;;;;;;5018241;28;19985;-82
2024/04/09 06:53:32;;;;;;;;;;;;;;;;;;5017686;28;20437;-82
2024/04/09 06:55:58;;;;;;;;;;;;;;;;;;5016510;28;19973;-80
2024/04/09 06:58:25;;;;;;;;;;;;;;;;;;5017558;28;19976;-81
2024/04/09 07:00:51;;;;;;;;;;;;;;;;;;5016389;28;20052;-80
2024/04/09 07:03:18;;;;;;;;;;;;;;;;;;5015416;28;20020;-81
2024/04/09 07:05:43;;;;;;;;;;;;;;;;;;5014218;28;19974;-81
2024/04/09 07:08:10;;;;;;;;;;;;;;;;;;5014899;28;20110;-81
2024/04/09 07:10:36;;;;;;;;;;;;;;;;;;5016039;28;20060;-80
2024/04/09 07:13:03;;;;;;;;;;;;;;;;;;5019074;28;20481;-80
2024/04/09 07:15:29;;;;;;;;;;;;;;;;;;5016765;28;19979;-80
2024/04/09 07:17:56;;;;;;;;;;;;;;;;;;5015242;28;20009;-80
2024/04/09 07:20:23;;;;;;;;;;;;;;;;;;5014355;28;20082;-80
2024/04/09 07:22:50;;;;;;;;;;;;;;;;;;5015594;28;20080;-81
2024/04/09 07:25:16;;;;;;;;;;;;;;;;;;5016804;28;20064;-79
2024/04/09 07:27:43;;;;;;;;;;;;;;;;;;5009537;28;20035;-80
2024/04/09 07:30:10;;;;;;;;;;;;;;;;;;5007439;28;19969;-79
2024/04/09 07:32:36;;;;;;;;;;;;;;;;;;5022042;28;20020;-80
2024/04/09 07:35:03;;;;;;;;;;;;;;;;;;5021665;28;19973;-79
2024/04/09 07:37:29;;;;;;;;;;;;;;;;;;5017253;28;20174;-79
2024/04/09 07:39:56;;;;;;;;;;;;;;;;;;5005300;28;19977;-79
2024/04/09 07:42:22;;;;;;;;;;;;;;;;;;5009602;28;20005;-80
2024/04/09 07:44:49;;;;;;;;;;;;;;;;;;4999641;28;20040;-79
2024/04/09 07:47:15;;;;;;;;;;;;;;;;;;5015367;28;20362;-81
2024/04/09 07:49:42;;;;;;;;;;;;;;;;;;4999998;28;19973;-80
2024/04/09 07:52:08;;;;;;;;;;;;;;;;;;4999362;28;19997;-79
2024/04/09 07:54:35;;;;;;;;;;;;;;;;;;5004782;28;19976;-80
2024/04/09 07:57:01;;;;;;;;;;;;;;;;;;4997158;28;19978;-78
2024/04/09 07:59:28;;;;;;;;;;;;;;;;;;4998441;28;20023;-79
2024/04/09 08:01:55;;;;;;;;;;;;;;;;;;4997990;28;19993;-79
2024/04/09 08:04:21;;;;;;;;;;;;;;;;;;5010778;28;19969;-80
2024/04/09 08:06:47;;;;;;;;;;;;;;;;;;4998271;28;19984;-80
2024/04/09 08:09:14;;;;;;;;;;;;;;;;;;4973801;28;20096;-79
2024/04/09 08:11:42;;;;;;;;;;;;;;;;;;5001531;28;19999;-80
2024/04/09 08:14:09;;;;;;;;;;;;;;;;;;5006779;28;19989;-81
2024/04/09 08:16:35;;;;;;;;;;;;;;;;;;5015198;28;19973;-79
2024/04/09 08:19:03;;;;;;;;;;;;;;;;;;4998972;28;20025;-80
2024/04/09 08:21:28;;;;;;;;;;;;;;;;;;5000228;28;20000;-77
2024/04/09 08:23:56;;;;;;;;;;;;;;;;;;5001648;28;19966;-81
2024/04/09 08:26:23;;;;;;;;;;;;;;;;;;5005095;28;19970;-80
2024/04/09 08:28:50;;;;;;;;;;;;;;;;;;5007514;28;20024;-77
2024/04/09 08:31:17;;;;;;;;;;;;;;;;;;5007896;28;20469;-80
2024/04/09 08:33:44;;;;;;;;;;;;;;;;;;4990262;28;20001;-81
2024/04/09 08:36:10;;;;;;;;;;;;;;;;;;4995459;28;19974;-79
2024/04/09 08:38:37;;;;;;;;;;;;;;;;;;4996470;28;19969;-81
2024/04/09 08:41:03;;;;;;;;;;;;;;;;;;5000291;28;19978;-77
2024/04/09 08:43:30;;;;;;;;;;;;;;;;;;5017411;28;20064;-80
2024/04/09 08:45:56;;;;;;;;;;;;;;;;;;5008790;28;19969;-81
2024/04/09 08:48:23;;;;;;;;;;;;;;;;;;5016169;28;19980;-81
2024/04/09 08:50:49;;;;;;;;;;;;;;;;;;5000907;28;20045;-81
2024/04/09 08:53:16;;;;;;;;;;;;;;;;;;5000547;28;20005;-81
2024/04/09 08:55:42;;;;;;;;;;;;;;;;;;5000169;28;20024;-80
2024/04/09 08:58:12;;;;;;;;;;;;;;;;;;4998975;28;19969;-80
2024/04/09 09:00:38;;;;;;;;;;;;;;;;;;5006929;28;19965;-80
2024/04/09 09:03:04;;;;;;;;;;;;;;;;;;5001674;28;19984;-79
2024/04/09 09:05:30;;;;;;;;;;;;;;;;;;5001228;28;19976;-79
2024/04/09 09:07:57;;;;;;;;;;;;;;;;;;5006946;28;20397;-79
2024/04/09 09:10:23;;;;;;;;;;;;;;;;;;5003498;28;19976;-80
2024/04/09 09:12:50;;;;;;;;;;;;;;;;;;4980436;28;20126;-80
2024/04/09 09:15:16;;;;;;;;;;;;;;;;;;5011657;28;19965;-79
2024/04/09 09:17:45;;;;;;;;;;;;;;;;;;5011381;28;20016;-79
2024/04/09 09:20:14;;;;;;;;;;;;;;;;;;5005182;28;20065;-79
2024/04/09 09:22:41;;;;;;;;;;;;;;;;;;5016541;28;19989;-79
2024/04/09 09:25:07;;;;;;;;;;;;;;;;;;4992465;28;19996;-80
2024/04/09 09:27:35;;;;;;;;;;;;;;;;;;4997981;28;19969;-79
2024/04/09 09:30:01;;;;;;;;;;;;;;;;;;5006870;28;19980;-79
2024/04/09 09:32:27;;;;;;;;;;;;;;;;;;5006110;28;19994;-80
2024/04/09 09:34:54;;;;;;;;;;;;;;;;;;4999810;28;20045;-79
2024/04/09 09:37:21;;;;;;;;;;;;;;;;;;5000456;28;20583;-80
2024/04/09 09:39:47;;;;;;;;;;;;;;;;;;4978818;28;19976;-80
2024/04/09 09:42:14;;;;;;;;;;;;;;;;;;5001838;28;20025;-79
2024/04/09 09:44:40;;;;;;;;;;;;;;;;;;5018503;28;19973;-80
2024/04/09 09:47:07;;;;;;;;;;;;;;;;;;5002436;28;19988;-79
2024/04/09 09:49:33;;;;;;;;;;;;;;;;;;4999131;28;19968;-79
2024/04/09 09:52:00;;;;;;;;;;;;;;;;;;4990246;28;20255;-79
2024/04/09 09:54:27;;;;;;;;;;;;;;;;;;5010825;28;19976;-80
2024/04/09 09:56:54;;;;;;;;;;;;;;;;;;4998188;28;20012;-78
2024/04/09 09:59:21;;;;;;;;;;;;;;;;;;5010303;28;20278;-78
2024/04/09 10:01:49;;;;;;;;;;;;;;;;;;5016279;28;19985;-78
2024/04/09 10:04:15;;;;;;;;;;;;;;;;;;5006222;28;20434;-79
2024/04/09 10:06:42;;;;;;;;;;;;;;;;;;4998165;28;20479;-79
2024/04/09 10:09:08;;;;;;;;;;;;;;;;;;4997765;28;19977;-80
2024/04/09 10:11:35;;;;;;;;;;;;;;;;;;4996242;28;19990;-79
2024/04/09 10:14:01;;;;;;;;;;;;;;;;;;4995203;28;19973;-79
2024/04/09 10:16:28;;;;;;;;;;;;;;;;;;4995415;28;20016;-80
2024/04/09 10:18:55;;;;;;;;;;;;;;;;;;4994333;28;19980;-79
2024/04/09 10:21:22;;;;;;;;;;;;;;;;;;4995042;28;20023;-79
2024/04/09 10:23:48;;;;;;;;;;;;;;;;;;4997067;28;20181;-80
2024/04/09 10:26:14;;;;;;;;;;;;;;;;;;4995968;28;20275;-78
2024/04/09 10:28:42;;;;;;;;;;;;;;;;;;4996879;28;20068;-79
2024/04/09 10:31:09;;;;;;;;;;;;;;;;;;4995898;28;19969;-79
2024/04/09 10:33:35;;;;;;;;;;;;;;;;;;4996515;28;19992;-79
2024/04/09 10:36:03;;;;;;;;;;;;;;;;;;4994325;28;19970;-79
2024/04/09 10:38:29;;;;;;;;;;;;;;;;;;4994132;28;20397;-78
2024/04/09 10:41:00;;;;;;;;;;;;;;;;;;4996063;28;20001;-79
2024/04/09 10:43:26;;;;;;;;;;;;;;;;;;4994929;28;19973;-78
2024/04/09 10:45:54;;;;;;;;;;;;;;;;;;4995564;28;20444;-79
2024/04/09 10:48:20;;;;;;;;;;;;;;;;;;5005693;28;19977;-78
2024/04/09 10:50:47;;;;;;;;;;;;;;;;;;4997429;28;19969;-79
2024/04/09 10:53:14;;;;;;;;;;;;;;;;;;4998019;28;19981;-77
2024/04/09 10:55:41;;;;;;;;;;;;;;;;;;4992695;28;19976;-79
2024/04/09 10:58:08;;;;;;;;;;;;;;;;;;5007587;28;19965;-77
2024/04/09 11:00:35;;;;;;;;;;;;;;;;;;5014941;28;19961;-80
2024/04/09 11:03:02;;;;;;;;;;;;;;;;;;5004672;28;19985;-79
2024/04/09 11:05:30;;;;;;;;;;;;;;;;;;5013215;28;20492;-77
2024/04/09 11:07:56;;;;;;;;;;;;;;;;;;5007055;28;20061;-80
2024/04/09 11:10:23;;;;;;;;;;;;;;;;;;4988041;28;20453;-77
2024/04/09 11:12:49;;;;;;;;;;;;;;;;;;5004644;28;19992;-80
2024/04/09 11:15:15;;;;;;;;;;;;;;;;;;5002853;28;19965;-80
2024/04/09 11:17:41;;;;;;;;;;;;;;;;;;5008226;28;20080;-76
2024/04/09 11:20:10;;;;;;;;;;;;;;;;;;5009679;28;20635;-79
2024/04/09 11:22:36;;;;;;;;;;;;;;;;;;5001976;28;20000;-80
2024/04/09 11:25:04;;;;;;;;;;;;;;;;;;4997646;28;19965;-78
2024/04/09 11:27:30;;;;;;;;;;;;;;;;;;5007417;28;20361;-78
2024/04/09 11:29:57;;;;;;;;;;;;;;;;;;4998507;28;20068;-78
2024/04/09 11:32:23;;;;;;;;;;;;;;;;;;4997366;28;19993;-78
2024/04/09 11:34:50;;;;;;;;;;;;;;;;;;4998928;28;19979;-78
2024/04/09 11:37:21;;;;;;;;;;;;;;;;;;5005527;28;20060;-82
2024/04/09 11:39:48;;;;;;;;;;;;;;;;;;5007955;28;19971;-81
2024/04/09 11:42:14;;;;;;;;;;;;;;;;;;5008807;28;20561;-81
2024/04/09 11:44:40;;;;;;;;;;;;;;;;;;5004343;28;20000;-77
2024/04/09 11:47:06;;;;;;;;;;;;;;;;;;5007006;28;20496;-80
2024/04/09 11:49:33;;;;;;;;;;;;;;;;;;5009092;28;20068;-79
2024/04/09 11:51:59;;;;;;;;;;;;;;;;;;4997907;28;20499;-77
2024/04/09 11:54:26;;;;;;;;;;;;;;;;;;5004182;28;20059;-75
2024/04/09 11:56:52;;;;;;;;;;;;;;;;;;5011906;28;20345;-78
2024/04/09 11:59:19;;;;;;;;;;;;;;;;;;5003445;28;19983;-78
2024/04/09 12:01:45;;;;;;;;;;;;;;;;;;5016576;28;20030;-80
2024/04/09 12:04:12;;;;;;;;;;;;;;;;;;5001422;28;20450;-79
2024/04/09 12:06:38;;;;;;;;;;;;;;;;;;5011874;28;20345;-80
2024/04/09 12:09:07;;;;;;;;;;;;;;;;;;5001694;28;20060;-80
2024/04/09 12:11:33;;;;;;;;;;;;;;;;;;4992410;28;19981;-79
2024/04/09 12:14:00;;;;;;;;;;;;;;;;;;5005446;28;19976;-80
2024/04/09 12:16:25;;;;;;;;;;;;;;;;;;5017538;28;20072;-81
2024/04/09 12:18:52;;;;;;;;;;;;;;;;;;5002584;28;20007;-81
2024/04/09 12:21:18;;;;;;;;;;;;;;;;;;5001283;28;20037;-81
2024/04/09 12:23:45;;;;;;;;;;;;;;;;;;5000623;28;19981;-82
2024/04/09 12:26:11;;;;;;;;;;;;;;;;;;4999921;28;20311;-80
2024/04/09 12:28:38;;;;;;;;;;;;;;;;;;5013877;28;19996;-81
2024/04/09 12:31:04;;;;;;;;;;;;;;;;;;5000562;28;20341;-82
2024/04/09 12:33:31;;;;;;;;;;;;;;;;;;5001181;28;20040;-81
2024/04/09 12:35:57;;;;;;;;;;;;;;;;;;5002164;28;20394;-82
2024/04/09 12:38:24;;;;;;;;;;;;;;;;;;5018976;28;19972;-81
2024/04/09 12:40:50;;;;;;;;;;;;;;;;;;5020809;28;20004;-83
2024/04/09 12:43:18;;;;;;;;;;;;;;;;;;5019539;28;19989;-81
2024/04/09 12:45:44;;;;;;;;;;;;;;;;;;5021647;28;19984;-80
2024/04/09 12:48:11;;;;;;;;;;;;;;;;;;5004476;28;19966;-81
2024/04/09 12:50:37;;;;;;;;;;;;;;;;;;5009771;28;20027;-81
2024/04/09 12:53:04;;;;;;;;;;;;;;;;;;5013866;28;19990;-81
2024/04/09 12:55:30;;;;;;;;;;;;;;;;;;5015914;28;20413;-82
2024/04/09 12:57:57;;;;;;;;;;;;;;;;;;5012475;28;20016;-82
2024/04/09 13:00:25;;;;;;;;;;;;;;;;;;5008954;28;20001;-83
2024/04/09 13:02:53;;;;;;;;;;;;;;;;;;5001455;28;20513;-82
2024/04/09 13:05:20;;;;;;;;;;;;;;;;;;5016872;28;20016;-81
2024/04/09 13:07:47;;;;;;;;;;;;;;;;;;5017261;28;19972;-81
2024/04/09 13:10:14;;;;;;;;;;;;;;;;;;4988175;28;20004;-81
2024/04/09 13:12:41;;;;;;;;;;;;;;;;;;5013366;28;20677;-80
2024/04/09 13:15:07;;;;;;;;;;;;;;;;;;4988507;28;19971;-81
2024/04/09 13:17:34;;;;;;;;;;;;;;;;;;4971257;28;20061;-80
2024/04/09 13:20:00;;;;;;;;;;;;;;;;;;4986853;28;20081;-80
2024/04/09 13:22:27;;;;;;;;;;;;;;;;;;4984940;28;20024;-82
2024/04/09 13:24:55;;;;;;;;;;;;;;;;;;5009429;28;20444;-81
2024/04/09 13:27:22;;;;;;;;;;;;;;;;;;4996487;28;19965;-81
2024/04/09 13:29:48;;;;;;;;;;;;;;;;;;5009820;28;19997;-80
2024/04/09 13:32:15;;;;;;;;;;;;;;;;;;5010886;28;19997;-80
2024/04/09 13:34:41;;;;;;;;;;;;;;;;;;5006434;28;20401;-80
2024/04/09 13:37:08;;;;;;;;;;;;;;;;;;5004354;28;19961;-81
2024/04/09 13:39:34;;;;;;;;;;;;;;;;;;5022442;28;20005;-80
2024/04/09 13:42:01;;;;;;;;;;;;;;;;;;5024074;28;20422;-79
2024/04/09 13:44:27;;;;;;;;;;;;;;;;;;5020010;28;20033;-80
2024/04/09 13:46:55;;;;;;;;;;;;;;;;;;5008246;28;20001;-81
2024/04/09 13:49:22;;;;;;;;;;;;;;;;;;5011962;28;19984;-81
2024/04/09 13:51:48;;;;;;;;;;;;;;;;;;5019542;28;19992;-82
2024/04/09 13:54:17;;;;;;;;;;;;;;;;;;5020981;28;20024;-83
2024/04/09 13:56:44;;;;;;;;;;;;;;;;;;5018242;28;20007;-83
2024/04/09 13:59:10;;;;;;;;;;;;;;;;;;5010716;28;20072;-82
2024/04/09 14:01:37;;;;;;;;;;;;;;;;;;4999674;28;20319;-81
2024/04/09 14:04:03;;;;;;;;;;;;;;;;;;5002859;28;19965;-81
2024/04/09 14:06:30;;;;;;;;;;;;;;;;;;5007266;28;20012;-80
2024/04/09 14:08:57;;;;;;;;;;;;;;;;;;5017790;28;19969;-82
2024/04/09 14:11:24;;;;;;;;;;;;;;;;;;5006625;28;19989;-84
2024/04/09 14:13:50;;;;;;;;;;;;;;;;;;4999365;28;20011;-85
2024/04/09 14:16:17;;;;;;;;;;;;;;;;;;5000064;28;19996;-83
2024/04/09 14:18:46;;;;;;;;;;;;;;;;;;4999834;28;20084;-84
2024/04/09 14:21:13;;;;;;;;;;;;;;;;;;4997847;28;20067;-81
2024/04/09 14:23:39;;;;;;;;;;;;;;;;;;4999443;28;20038;-83
2024/04/09 14:26:06;;;;;;;;;;;;;;;;;;5008388;28;20001;-83
2024/04/09 14:28:32;;;;;;;;;;;;;;;;;;5009706;28;19965;-83
2024/04/09 14:30:59;;;;;;;;;;;;;;;;;;5004030;28;19984;-84
2024/04/09 14:33:25;;;;;;;;;;;;;;;;;;5010650;28;19981;-84
2024/04/09 14:35:52;;;;;;;;;;;;;;;;;;5011837;28;19972;-84
2024/04/09 14:38:19;;;;;;;;;;;;;;;;;;5006328;28;20055;-83
2024/04/09 14:40:46;;;;;;;;;;;;;;;;;;4990469;28;19968;-82
2024/04/09 14:43:12;;;;;;;;;;;;;;;;;;4989373;28;19981;-80
2024/04/09 14:45:39;;;;;;;;;;;;;;;;;;5005205;28;20097;-84
2024/04/09 14:48:05;;;;;;;;;;;;;;;;;;4991396;28;19966;-82
2024/04/09 14:50:32;;;;;;;;;;;;;;;;;;5008981;28;19969;-82
2024/04/09 14:52:58;;;;;;;;;;;;;;;;;;4991970;28;19982;-85
2024/04/09 14:55:25;;;;;;;;;;;;;;;;;;4993677;28;20080;-82
2024/04/09 14:57:51;;;;;;;;;;;;;;;;;;5009819;28;19966;-81
2024/04/09 15:00:18;;;;;;;;;;;;;;;;;;5014729;28;20003;-83
2024/04/09 15:02:44;;;;;;;;;;;;;;;;;;5016948;28;20413;-81
2024/04/09 15:05:11;;;;;;;;;;;;;;;;;;5015791;28;19965;-79
2024/04/09 15:07:37;;;;;;;;;;;;;;;;;;5010621;28;19969;-82
2024/04/09 15:10:04;;;;;;;;;;;;;;;;;;4997658;28;20012;-81
2024/04/09 15:12:30;;;;;;;;;;;;;;;;;;5020787;28;20016;-82
2024/04/09 15:16:14;;;;;;;;;;;;;;;;;;5508165;25;19994;-83
2024/04/09 15:18:40;;;;;;;;;;;;;;;;;;5451100;26;20020;-83
2024/04/09 15:21:08;;;;;;;;;;;;;;;;;;5427521;26;19995;-83
2024/04/09 15:23:34;;;;;;;;;;;;;;;;;;5476034;26;20025;-82
2024/04/09 15:26:04;;;;;;;;;;;;;;;;;;5439508;26;19998;-83
2024/04/09 15:28:30;;;;;;;;;;;;;;;;;;5430597;26;20003;-82
2024/04/09 15:31:00;;;;;;;;;;;;;;;;;;5453075;26;20032;-83
2024/04/09 15:33:26;;;;;;;;;;;;;;;;;;5403500;26;20025;-80
2024/04/09 15:35:55;;;;;;;;;;;;;;;;;;5475623;26;20002;-83
2024/04/09 15:38:21;;;;;;;;;;;;;;;;;;5445976;26;20006;-83
2024/04/09 15:40:50;;;;;;;;;;;;;;;;;;5428460;26;20002;-84
2024/04/09 15:43:16;;;;;;;;;;;;;;;;;;5475918;26;20028;-83
2024/04/09 15:45:44;;;;;;;;;;;;;;;;;;5476162;26;20006;-83
2024/04/09 15:48:10;;;;;;;;;;;;;;;;;;5473779;26;20060;-83
2024/04/09 15:50:40;;;;;;;;;;;;;;;;;;5476149;26;19998;-84
2024/04/09 15:53:06;;;;;;;;;;;;;;;;;;5440088;26;20002;-82
2024/04/09 15:55:35;;;;;;;;;;;;;;;;;;5459147;26;20050;-82
2024/04/09 15:58:01;;;;;;;;;;;;;;;;;;5421891;26;20018;-85
2024/04/09 16:00:30;;;;;;;;;;;;;;;;;;5452437;26;20082;-82
2024/04/09 16:02:56;;;;;;;;;;;;;;;;;;5472833;26;20033;-83
2024/04/09 16:05:26;;;;;;;;;;;;;;;;;;5475776;26;19998;-82
2024/04/09 16:07:52;;;;;;;;;;;;;;;;;;5472955;26;20038;-82
2024/04/09 16:10:21;;;;;;;;;;;;;;;;;;5429702;26;20412;-83
2024/04/09 16:12:49;;;;;;;;;;;;;;;;;;5429644;26;20021;-84
2024/04/09 16:15:17;;;;;;;;;;;;;;;;;;5475524;26;20017;-83
2024/04/09 16:17:44;;;;;;;;;;;;;;;;;;5474554;26;20022;-82
2024/04/09 16:20:12;;;;;;;;;;;;;;;;;;5472905;26;20052;-81
2024/04/09 16:22:39;;;;;;;;;;;;;;;;;;5472928;26;20010;-79
2024/04/09 16:25:08;;;;;;;;;;;;;;;;;;5472435;26;20020;-81
2024/04/09 16:27:34;;;;;;;;;;;;;;;;;;5455475;26;20067;-80
2024/04/09 16:30:02;;;;;;;;;;;;;;;;;;5457501;26;19999;-80
2024/04/09 16:32:28;;;;;;;;;;;;;;;;;;5459016;26;20029;-84
2024/04/09 16:34:58;;;;;;;;;;;;;;;;;;5466904;26;20006;-83
2024/04/09 16:37:24;;;;;;;;;;;;;;;;;;5458331;26;20462;-83
2024/04/09 16:39:53;;;;;;;;;;;;;;;;;;5459592;26;20002;-82
2024/04/09 16:42:19;;;;;;;;;;;;;;;;;;5458976;26;20010;-82
2024/04/09 16:44:47;;;;;;;;;;;;;;;;;;5457954;26;20029;-82